sensor_id;sensor_type;location;lat;lon;timestamp;P1;durP1;ratioP1;P2;durP2;ratioP2
908;SDS011;441;51.192;6.788;2023-12-20T00:00:43;14.90;;;14.50;;
908;SDS011;441;51.192;6.788;2023-12-20T00:03:10;14.90;;;14.40;;
908;SDS011;441;51.192;6.788;2023-12-20T00:05:39;16.73;;;16.33;;
908;SDS011;441;51.192;6.788;2023-12-20T00:08:06;17.90;;;17.40;;
908;SDS011;441;51.192;6.788;2023-12-20T00:10:33;16.87;;;16.40;;
908;SDS011;441;51.192;6.788;2023-12-20T00:13:00;16.20;;;15.70;;
908;SDS011;441;51.192;6.788;2023-12-20T00:15:26;16.13;;;15.73;;
908;SDS011;441;51.192;6.788;2023-12-20T00:17:53;17.40;;;16.90;;
908;SDS011;441;51.192;6.788;2023-12-20T00:20:20;17.00;;;16.50;;
908;SDS011;441;51.192;6.788;2023-12-20T00:22:49;16.20;;;15.80;;
908;SDS011;441;51.192;6.788;2023-12-20T00:25:15;16.17;;;15.77;;
908;SDS011;441;51.192;6.788;2023-12-20T00:27:42;17.53;;;17.03;;
908;SDS011;441;51.192;6.788;2023-12-20T00:30:10;16.80;;;16.40;;
908;SDS011;441;51.192;6.788;2023-12-20T00:32:37;16.80;;;16.30;;
908;SDS011;441;51.192;6.788;2023-12-20T00:35:04;16.40;;;15.90;;
908;SDS011;441;51.192;6.788;2023-12-20T00:37:31;16.70;;;16.17;;
908;SDS011;441;51.192;6.788;2023-12-20T00:40:00;13.90;;;13.57;;
908;SDS011;441;51.192;6.788;2023-12-20T00:42:27;13.70;;;13.30;;
908;SDS011;441;51.192;6.788;2023-12-20T00:44:53;13.20;;;12.90;;
908;SDS011;441;51.192;6.788;2023-12-20T00:47:20;13.30;;;13.00;;
908;SDS011;441;51.192;6.788;2023-12-20T00:49:48;13.10;;;12.80;;
908;SDS011;441;51.192;6.788;2023-12-20T00:52:15;14.20;;;13.80;;
908;SDS011;441;51.192;6.788;2023-12-20T00:54:42;13.40;;;13.00;;
908;SDS011;441;51.192;6.788;2023-12-20T00:57:10;13.60;;;13.20;;
908;SDS011;441;51.192;6.788;2023-12-20T00:59:37;18.07;;;17.47;;
908;SDS011;441;51.192;6.788;2023-12-20T01:02:04;16.80;;;16.40;;
908;SDS011;441;51.192;6.788;2023-12-20T01:04:31;16.07;;;15.67;;
908;SDS011;441;51.192;6.788;2023-12-20T01:06:58;15.60;;;15.20;;
908;SDS011;441;51.192;6.788;2023-12-20T01:09:25;15.50;;;15.10;;
908;SDS011;441;51.192;6.788;2023-12-20T01:11:52;13.73;;;13.33;;
908;SDS011;441;51.192;6.788;2023-12-20T01:14:20;14.37;;;13.87;;
908;SDS011;441;51.192;6.788;2023-12-20T01:16:46;13.83;;;13.43;;
908;SDS011;441;51.192;6.788;2023-12-20T01:19:14;13.90;;;13.43;;
908;SDS011;441;51.192;6.788;2023-12-20T01:21:41;13.70;;;13.30;;
908;SDS011;441;51.192;6.788;2023-12-20T01:24:08;14.30;;;13.90;;
908;SDS011;441;51.192;6.788;2023-12-20T01:26:35;13.70;;;13.30;;
908;SDS011;441;51.192;6.788;2023-12-20T01:29:02;14.27;;;13.87;;
908;SDS011;441;51.192;6.788;2023-12-20T01:31:30;14.50;;;14.00;;
908;SDS011;441;51.192;6.788;2023-12-20T01:33:57;13.63;;;13.33;;
908;SDS011;441;51.192;6.788;2023-12-20T01:36:24;14.20;;;13.50;;
908;SDS011;441;51.192;6.788;2023-12-20T01:38:50;13.53;;;13.13;;
908;SDS011;441;51.192;6.788;2023-12-20T01:41:17;13.50;;;13.20;;
908;SDS011;441;51.192;6.788;2023-12-20T01:43:44;13.50;;;13.10;;
908;SDS011;441;51.192;6.788;2023-12-20T01:46:11;13.33;;;12.97;;
908;SDS011;441;51.192;6.788;2023-12-20T01:48:40;13.90;;;13.50;;
908;SDS011;441;51.192;6.788;2023-12-20T01:51:07;13.20;;;12.90;;
908;SDS011;441;51.192;6.788;2023-12-20T01:53:34;13.40;;;13.10;;
908;SDS011;441;51.192;6.788;2023-12-20T01:56:01;13.80;;;13.30;;
908;SDS011;441;51.192;6.788;2023-12-20T01:58:28;13.40;;;13.10;;
908;SDS011;441;51.192;6.788;2023-12-20T02:00:56;14.37;;;13.97;;
908;SDS011;441;51.192;6.788;2023-12-20T02:03:23;13.80;;;13.40;;
908;SDS011;441;51.192;6.788;2023-12-20T02:05:52;13.17;;;12.77;;
908;SDS011;441;51.192;6.788;2023-12-20T02:08:19;14.47;;;13.63;;
908;SDS011;441;51.192;6.788;2023-12-20T02:10:46;13.53;;;13.13;;
908;SDS011;441;51.192;6.788;2023-12-20T02:13:14;13.47;;;13.13;;
908;SDS011;441;51.192;6.788;2023-12-20T02:15:40;13.20;;;12.80;;
908;SDS011;441;51.192;6.788;2023-12-20T02:18:08;14.23;;;13.83;;
908;SDS011;441;51.192;6.788;2023-12-20T02:20:35;13.97;;;13.57;;
908;SDS011;441;51.192;6.788;2023-12-20T02:23:04;14.17;;;13.77;;
908;SDS011;441;51.192;6.788;2023-12-20T02:25:30;12.93;;;12.63;;
908;SDS011;441;51.192;6.788;2023-12-20T02:27:57;13.60;;;13.20;;
908;SDS011;441;51.192;6.788;2023-12-20T02:30:24;13.87;;;13.47;;
908;SDS011;441;51.192;6.788;2023-12-20T02:32:51;14.00;;;13.70;;
908;SDS011;441;51.192;6.788;2023-12-20T02:35:19;14.40;;;14.00;;
908;SDS011;441;51.192;6.788;2023-12-20T02:37:46;13.73;;;13.37;;
908;SDS011;441;51.192;6.788;2023-12-20T02:40:14;14.70;;;14.20;;
908;SDS011;441;51.192;6.788;2023-12-20T02:42:41;13.80;;;13.50;;
908;SDS011;441;51.192;6.788;2023-12-20T02:45:08;13.70;;;13.40;;
908;SDS011;441;51.192;6.788;2023-12-20T02:47:35;12.67;;;12.37;;
908;SDS011;441;51.192;6.788;2023-12-20T02:50:02;13.57;;;13.17;;
908;SDS011;441;51.192;6.788;2023-12-20T02:52:28;13.07;;;12.73;;
908;SDS011;441;51.192;6.788;2023-12-20T02:54:55;14.60;;;14.20;;
908;SDS011;441;51.192;6.788;2023-12-20T02:57:24;12.80;;;12.50;;
908;SDS011;441;51.192;6.788;2023-12-20T02:59:50;12.40;;;12.10;;
908;SDS011;441;51.192;6.788;2023-12-20T03:02:17;12.93;;;12.63;;
908;SDS011;441;51.192;6.788;2023-12-20T03:04:44;13.50;;;13.20;;
908;SDS011;441;51.192;6.788;2023-12-20T03:07:11;13.70;;;13.40;;
908;SDS011;441;51.192;6.788;2023-12-20T03:09:38;12.93;;;12.60;;
908;SDS011;441;51.192;6.788;2023-12-20T03:12:05;13.17;;;12.87;;
908;SDS011;441;51.192;6.788;2023-12-20T03:14:33;13.00;;;12.60;;
908;SDS011;441;51.192;6.788;2023-12-20T03:17:00;13.73;;;13.33;;
908;SDS011;441;51.192;6.788;2023-12-20T03:19:27;13.20;;;12.90;;
908;SDS011;441;51.192;6.788;2023-12-20T03:21:54;13.77;;;13.47;;
908;SDS011;441;51.192;6.788;2023-12-20T03:24:21;13.20;;;12.90;;
908;SDS011;441;51.192;6.788;2023-12-20T03:26:48;13.60;;;13.30;;
908;SDS011;441;51.192;6.788;2023-12-20T03:29:14;13.93;;;13.53;;
908;SDS011;441;51.192;6.788;2023-12-20T03:31:43;13.60;;;13.30;;
908;SDS011;441;51.192;6.788;2023-12-20T03:34:10;13.50;;;13.20;;
908;SDS011;441;51.192;6.788;2023-12-20T03:36:37;14.00;;;13.50;;
908;SDS011;441;51.192;6.788;2023-12-20T03:39:04;13.23;;;12.83;;
908;SDS011;441;51.192;6.788;2023-12-20T03:41:31;13.70;;;13.30;;
908;SDS011;441;51.192;6.788;2023-12-20T03:43:58;13.77;;;13.30;;
908;SDS011;441;51.192;6.788;2023-12-20T03:46:25;13.33;;;12.93;;
908;SDS011;441;51.192;6.788;2023-12-20T03:48:53;13.13;;;12.70;;
908;SDS011;441;51.192;6.788;2023-12-20T03:51:20;13.97;;;13.60;;
908;SDS011;441;51.192;6.788;2023-12-20T03:53:47;13.70;;;13.20;;
908;SDS011;441;51.192;6.788;2023-12-20T03:56:14;12.13;;;11.83;;
908;SDS011;441;51.192;6.788;2023-12-20T03:58:41;13.73;;;13.23;;
908;SDS011;441;51.192;6.788;2023-12-20T04:01:09;13.60;;;13.20;;
908;SDS011;441;51.192;6.788;2023-12-20T04:03:37;14.00;;;13.63;;
908;SDS011;441;51.192;6.788;2023-12-20T04:06:05;14.10;;;13.73;;
908;SDS011;441;51.192;6.788;2023-12-20T04:08:32;14.07;;;13.67;;
908;SDS011;441;51.192;6.788;2023-12-20T04:10:59;14.53;;;14.13;;
908;SDS011;441;51.192;6.788;2023-12-20T04:13:26;13.53;;;13.23;;
908;SDS011;441;51.192;6.788;2023-12-20T04:15:53;15.10;;;14.70;;
908;SDS011;441;51.192;6.788;2023-12-20T04:18:20;15.60;;;15.20;;
908;SDS011;441;51.192;6.788;2023-12-20T04:20:47;14.60;;;14.20;;
908;SDS011;441;51.192;6.788;2023-12-20T04:23:15;15.50;;;15.10;;
908;SDS011;441;51.192;6.788;2023-12-20T04:25:42;15.10;;;14.70;;
908;SDS011;441;51.192;6.788;2023-12-20T04:28:09;14.27;;;13.87;;
908;SDS011;441;51.192;6.788;2023-12-20T04:30:36;15.43;;;15.03;;
908;SDS011;441;51.192;6.788;2023-12-20T04:33:03;15.40;;;14.90;;
908;SDS011;441;51.192;6.788;2023-12-20T04:35:30;14.93;;;14.53;;
908;SDS011;441;51.192;6.788;2023-12-20T04:37:57;15.07;;;14.57;;
908;SDS011;441;51.192;6.788;2023-12-20T04:40:25;14.50;;;14.10;;
908;SDS011;441;51.192;6.788;2023-12-20T04:42:52;14.63;;;14.10;;
908;SDS011;441;51.192;6.788;2023-12-20T04:45:19;13.90;;;13.60;;
908;SDS011;441;51.192;6.788;2023-12-20T04:47:46;16.20;;;15.60;;
908;SDS011;441;51.192;6.788;2023-12-20T04:50:13;14.97;;;14.40;;
908;SDS011;441;51.192;6.788;2023-12-20T04:52:40;14.60;;;14.20;;
908;SDS011;441;51.192;6.788;2023-12-20T04:55:07;14.30;;;13.90;;
908;SDS011;441;51.192;6.788;2023-12-20T04:57:36;14.73;;;14.20;;
908;SDS011;441;51.192;6.788;2023-12-20T05:00:03;15.00;;;14.60;;
908;SDS011;441;51.192;6.788;2023-12-20T05:02:33;14.73;;;14.43;;
908;SDS011;441;51.192;6.788;2023-12-20T05:05:00;16.20;;;15.80;;
908;SDS011;441;51.192;6.788;2023-12-20T05:07:27;15.87;;;15.37;;
908;SDS011;441;51.192;6.788;2023-12-20T05:09:54;16.37;;;15.87;;
908;SDS011;441;51.192;6.788;2023-12-20T05:12:21;17.83;;;17.23;;
908;SDS011;441;51.192;6.788;2023-12-20T05:14:49;15.80;;;15.40;;
908;SDS011;441;51.192;6.788;2023-12-20T05:17:17;16.67;;;16.27;;
908;SDS011;441;51.192;6.788;2023-12-20T05:19:45;15.60;;;15.10;;
908;SDS011;441;51.192;6.788;2023-12-20T05:22:12;15.23;;;14.83;;
908;SDS011;441;51.192;6.788;2023-12-20T05:24:39;17.10;;;16.30;;
908;SDS011;441;51.192;6.788;2023-12-20T05:27:06;15.40;;;15.00;;
908;SDS011;441;51.192;6.788;2023-12-20T05:29:33;16.83;;;16.33;;
908;SDS011;441;51.192;6.788;2023-12-20T05:32:01;15.77;;;15.10;;
908;SDS011;441;51.192;6.788;2023-12-20T05:34:29;16.60;;;16.10;;
908;SDS011;441;51.192;6.788;2023-12-20T05:36:57;16.07;;;15.67;;
908;SDS011;441;51.192;6.788;2023-12-20T05:39:24;15.30;;;14.90;;
908;SDS011;441;51.192;6.788;2023-12-20T05:41:51;15.27;;;14.87;;
908;SDS011;441;51.192;6.788;2023-12-20T05:44:18;17.10;;;16.50;;
908;SDS011;441;51.192;6.788;2023-12-20T05:46:45;18.20;;;17.70;;
908;SDS011;441;51.192;6.788;2023-12-20T05:49:13;17.17;;;16.67;;
908;SDS011;441;51.192;6.788;2023-12-20T05:51:40;16.57;;;16.10;;
908;SDS011;441;51.192;6.788;2023-12-20T05:54:09;19.23;;;18.63;;
908;SDS011;441;51.192;6.788;2023-12-20T05:56:36;20.50;;;19.90;;
908;SDS011;441;51.192;6.788;2023-12-20T05:59:02;20.03;;;19.43;;
908;SDS011;441;51.192;6.788;2023-12-20T06:01:29;19.50;;;18.97;;
908;SDS011;441;51.192;6.788;2023-12-20T06:03:56;23.47;;;22.77;;
908;SDS011;441;51.192;6.788;2023-12-20T06:06:24;18.40;;;17.90;;
908;SDS011;441;51.192;6.788;2023-12-20T06:08:51;18.73;;;18.13;;
908;SDS011;441;51.192;6.788;2023-12-20T06:11:18;17.43;;;16.93;;
908;SDS011;441;51.192;6.788;2023-12-20T06:13:45;17.70;;;17.00;;
908;SDS011;441;51.192;6.788;2023-12-20T06:16:12;19.20;;;18.70;;
908;SDS011;441;51.192;6.788;2023-12-20T06:18:39;17.40;;;16.90;;
908;SDS011;441;51.192;6.788;2023-12-20T06:21:06;17.50;;;17.00;;
908;SDS011;441;51.192;6.788;2023-12-20T06:23:34;17.23;;;16.63;;
908;SDS011;441;51.192;6.788;2023-12-20T06:26:02;16.17;;;15.67;;
908;SDS011;441;51.192;6.788;2023-12-20T06:28:29;15.07;;;14.67;;
908;SDS011;441;51.192;6.788;2023-12-20T06:30:56;14.50;;;13.97;;
908;SDS011;441;51.192;6.788;2023-12-20T06:33:22;14.53;;;14.13;;
908;SDS011;441;51.192;6.788;2023-12-20T06:35:49;14.63;;;14.23;;
908;SDS011;441;51.192;6.788;2023-12-20T06:38:17;14.80;;;14.40;;
908;SDS011;441;51.192;6.788;2023-12-20T06:40:47;14.50;;;14.10;;
908;SDS011;441;51.192;6.788;2023-12-20T06:43:13;15.00;;;14.60;;
908;SDS011;441;51.192;6.788;2023-12-20T06:45:40;15.53;;;15.10;;
908;SDS011;441;51.192;6.788;2023-12-20T06:48:07;15.77;;;15.27;;
908;SDS011;441;51.192;6.788;2023-12-20T06:50:36;16.37;;;15.87;;
908;SDS011;441;51.192;6.788;2023-12-20T06:53:05;16.27;;;15.83;;
908;SDS011;441;51.192;6.788;2023-12-20T06:55:32;15.70;;;15.30;;
908;SDS011;441;51.192;6.788;2023-12-20T06:58:01;14.50;;;14.10;;
908;SDS011;441;51.192;6.788;2023-12-20T07:00:28;16.70;;;16.20;;
908;SDS011;441;51.192;6.788;2023-12-20T07:02:54;16.33;;;15.93;;
908;SDS011;441;51.192;6.788;2023-12-20T07:05:21;15.37;;;14.87;;
908;SDS011;441;51.192;6.788;2023-12-20T07:07:48;17.53;;;17.03;;
908;SDS011;441;51.192;6.788;2023-12-20T07:10:15;17.03;;;16.43;;
908;SDS011;441;51.192;6.788;2023-12-20T07:12:42;17.60;;;17.00;;
908;SDS011;441;51.192;6.788;2023-12-20T07:15:11;18.15;;;17.17;;
908;SDS011;441;51.192;6.788;2023-12-20T07:17:38;18.10;;;17.53;;
908;SDS011;441;51.192;6.788;2023-12-20T07:20:05;13.75;;;13.25;;
908;SDS011;441;51.192;6.788;2023-12-20T07:22:35;16.63;;;16.00;;
908;SDS011;441;51.192;6.788;2023-12-20T07:25:03;17.27;;;16.77;;
908;SDS011;441;51.192;6.788;2023-12-20T07:27:30;17.40;;;16.90;;
908;SDS011;441;51.192;6.788;2023-12-20T07:29:57;17.63;;;17.13;;
908;SDS011;441;51.192;6.788;2023-12-20T07:32:26;17.47;;;17.00;;
908;SDS011;441;51.192;6.788;2023-12-20T07:34:53;16.50;;;16.00;;
908;SDS011;441;51.192;6.788;2023-12-20T07:37:20;17.60;;;17.03;;
908;SDS011;441;51.192;6.788;2023-12-20T07:39:46;17.50;;;16.90;;
908;SDS011;441;51.192;6.788;2023-12-20T07:42:13;16.13;;;15.53;;
908;SDS011;441;51.192;6.788;2023-12-20T07:44:40;17.07;;;16.47;;
908;SDS011;441;51.192;6.788;2023-12-20T07:47:07;17.80;;;17.30;;
908;SDS011;441;51.192;6.788;2023-12-20T07:49:35;17.47;;;17.00;;
908;SDS011;441;51.192;6.788;2023-12-20T07:52:03;17.17;;;16.57;;
908;SDS011;441;51.192;6.788;2023-12-20T07:54:30;16.27;;;15.77;;
908;SDS011;441;51.192;6.788;2023-12-20T07:56:57;16.40;;;15.80;;
908;SDS011;441;51.192;6.788;2023-12-20T07:59:24;17.37;;;16.67;;
908;SDS011;441;51.192;6.788;2023-12-20T08:01:50;16.93;;;16.23;;
908;SDS011;441;51.192;6.788;2023-12-20T08:04:17;18.07;;;17.57;;
908;SDS011;441;51.192;6.788;2023-12-20T08:06:46;16.73;;;16.13;;
908;SDS011;441;51.192;6.788;2023-12-20T08:09:12;17.60;;;17.10;;
908;SDS011;441;51.192;6.788;2023-12-20T08:11:39;15.90;;;15.40;;
908;SDS011;441;51.192;6.788;2023-12-20T08:14:10;17.30;;;16.80;;
908;SDS011;441;51.192;6.788;2023-12-20T08:16:37;17.03;;;16.53;;
908;SDS011;441;51.192;6.788;2023-12-20T08:19:04;15.30;;;14.77;;
908;SDS011;441;51.192;6.788;2023-12-20T08:21:31;16.70;;;16.20;;
908;SDS011;441;51.192;6.788;2023-12-20T08:24:00;15.73;;;15.33;;
908;SDS011;441;51.192;6.788;2023-12-20T08:26:26;17.60;;;17.10;;
908;SDS011;441;51.192;6.788;2023-12-20T08:28:53;16.00;;;15.50;;
908;SDS011;441;51.192;6.788;2023-12-20T08:31:20;15.93;;;15.53;;
908;SDS011;441;51.192;6.788;2023-12-20T08:33:48;16.70;;;16.30;;
908;SDS011;441;51.192;6.788;2023-12-20T08:36:15;15.77;;;15.37;;
908;SDS011;441;51.192;6.788;2023-12-20T08:38:43;15.90;;;15.40;;
908;SDS011;441;51.192;6.788;2023-12-20T08:41:12;18.30;;;17.43;;
908;SDS011;441;51.192;6.788;2023-12-20T08:43:39;19.40;;;18.60;;
908;SDS011;441;51.192;6.788;2023-12-20T08:46:08;16.97;;;16.47;;
908;SDS011;441;51.192;6.788;2023-12-20T08:48:38;13.70;;;13.30;;
908;SDS011;441;51.192;6.788;2023-12-20T08:51:05;17.03;;;16.47;;
908;SDS011;441;51.192;6.788;2023-12-20T08:53:33;17.87;;;17.23;;
908;SDS011;441;51.192;6.788;2023-12-20T08:56:00;16.57;;;15.97;;
908;SDS011;441;51.192;6.788;2023-12-20T08:58:28;17.10;;;16.60;;
908;SDS011;441;51.192;6.788;2023-12-20T09:00:55;18.47;;;17.67;;
908;SDS011;441;51.192;6.788;2023-12-20T09:03:23;18.13;;;17.43;;
908;SDS011;441;51.192;6.788;2023-12-20T09:05:50;17.10;;;16.70;;
908;SDS011;441;51.192;6.788;2023-12-20T09:08:16;18.97;;;17.93;;
908;SDS011;441;51.192;6.788;2023-12-20T09:10:43;16.53;;;16.03;;
908;SDS011;441;51.192;6.788;2023-12-20T09:13:10;17.83;;;17.33;;
908;SDS011;441;51.192;6.788;2023-12-20T09:15:39;17.47;;;16.97;;
908;SDS011;441;51.192;6.788;2023-12-20T09:18:06;18.00;;;17.30;;
908;SDS011;441;51.192;6.788;2023-12-20T09:20:33;18.40;;;17.90;;
908;SDS011;441;51.192;6.788;2023-12-20T09:23:00;18.50;;;18.00;;
908;SDS011;441;51.192;6.788;2023-12-20T09:25:27;18.03;;;17.33;;
908;SDS011;441;51.192;6.788;2023-12-20T09:27:55;17.17;;;16.67;;
908;SDS011;441;51.192;6.788;2023-12-20T09:30:22;15.57;;;15.07;;
908;SDS011;441;51.192;6.788;2023-12-20T09:32:50;17.70;;;17.17;;
908;SDS011;441;51.192;6.788;2023-12-20T09:35:17;17.87;;;17.17;;
908;SDS011;441;51.192;6.788;2023-12-20T09:37:44;19.33;;;18.43;;
908;SDS011;441;51.192;6.788;2023-12-20T09:40:12;18.60;;;18.00;;
908;SDS011;441;51.192;6.788;2023-12-20T09:42:43;18.77;;;17.97;;
908;SDS011;441;51.192;6.788;2023-12-20T09:45:15;19.47;;;18.87;;
908;SDS011;441;51.192;6.788;2023-12-20T09:47:46;18.80;;;18.30;;
908;SDS011;441;51.192;6.788;2023-12-20T09:50:14;19.93;;;19.23;;
908;SDS011;441;51.192;6.788;2023-12-20T09:52:42;19.50;;;18.70;;
908;SDS011;441;51.192;6.788;2023-12-20T09:55:11;18.13;;;17.53;;
908;SDS011;441;51.192;6.788;2023-12-20T09:57:39;18.90;;;18.30;;
908;SDS011;441;51.192;6.788;2023-12-20T10:00:07;19.10;;;18.47;;
908;SDS011;441;51.192;6.788;2023-12-20T10:02:34;19.33;;;18.77;;
908;SDS011;441;51.192;6.788;2023-12-20T10:05:08;18.90;;;18.20;;
908;SDS011;441;51.192;6.788;2023-12-20T10:07:44;18.45;;;17.85;;
908;SDS011;441;51.192;6.788;2023-12-20T10:10:11;18.70;;;18.10;;
908;SDS011;441;51.192;6.788;2023-12-20T10:12:40;19.47;;;18.87;;
908;SDS011;441;51.192;6.788;2023-12-20T10:15:07;20.07;;;19.40;;
908;SDS011;441;51.192;6.788;2023-12-20T10:17:36;19.43;;;18.53;;
908;SDS011;441;51.192;6.788;2023-12-20T10:20:03;18.90;;;18.30;;
908;SDS011;441;51.192;6.788;2023-12-20T10:22:36;18.50;;;18.00;;
908;SDS011;441;51.192;6.788;2023-12-20T10:25:04;18.23;;;17.60;;
908;SDS011;441;51.192;6.788;2023-12-20T10:27:32;18.30;;;17.80;;
908;SDS011;441;51.192;6.788;2023-12-20T10:29:59;19.43;;;18.83;;
908;SDS011;441;51.192;6.788;2023-12-20T10:32:26;21.03;;;20.43;;
908;SDS011;441;51.192;6.788;2023-12-20T10:34:54;20.10;;;19.30;;
908;SDS011;441;51.192;6.788;2023-12-20T10:37:21;18.33;;;17.73;;
908;SDS011;441;51.192;6.788;2023-12-20T10:39:51;20.40;;;19.70;;
908;SDS011;441;51.192;6.788;2023-12-20T10:42:21;18.45;;;17.85;;
908;SDS011;441;51.192;6.788;2023-12-20T10:44:54;19.07;;;18.47;;
908;SDS011;441;51.192;6.788;2023-12-20T10:47:21;19.60;;;18.90;;
908;SDS011;441;51.192;6.788;2023-12-20T10:49:50;19.50;;;19.00;;
908;SDS011;441;51.192;6.788;2023-12-20T10:52:19;18.87;;;18.17;;
908;SDS011;441;51.192;6.788;2023-12-20T10:54:49;20.13;;;19.43;;
908;SDS011;441;51.192;6.788;2023-12-20T10:57:18;19.07;;;18.37;;
908;SDS011;441;51.192;6.788;2023-12-20T10:59:45;20.50;;;19.90;;
908;SDS011;441;51.192;6.788;2023-12-20T11:02:14;19.40;;;18.80;;
908;SDS011;441;51.192;6.788;2023-12-20T11:04:43;19.57;;;18.87;;
908;SDS011;441;51.192;6.788;2023-12-20T11:07:17;19.30;;;18.80;;
908;SDS011;441;51.192;6.788;2023-12-20T11:09:54;17.60;;;17.10;;
908;SDS011;441;51.192;6.788;2023-12-20T11:12:28;18.70;;;17.90;;
908;SDS011;441;51.192;6.788;2023-12-20T11:15:03;19.30;;;18.63;;
908;SDS011;441;51.192;6.788;2023-12-20T11:17:31;18.57;;;18.07;;
908;SDS011;441;51.192;6.788;2023-12-20T11:20:05;19.33;;;18.50;;
908;SDS011;441;51.192;6.788;2023-12-20T11:22:39;18.47;;;17.97;;
908;SDS011;441;51.192;6.788;2023-12-20T11:25:19;19.50;;;18.90;;
908;SDS011;441;51.192;6.788;2023-12-20T11:30:40;17.60;;;17.10;;
908;SDS011;441;51.192;6.788;2023-12-20T11:33:07;19.03;;;18.53;;
908;SDS011;441;51.192;6.788;2023-12-20T11:35:34;25.90;;;25.10;;
908;SDS011;441;51.192;6.788;2023-12-20T11:38:02;24.43;;;23.73;;
908;SDS011;441;51.192;6.788;2023-12-20T11:40:31;27.70;;;26.70;;
908;SDS011;441;51.192;6.788;2023-12-20T11:43:01;24.30;;;23.60;;
908;SDS011;441;51.192;6.788;2023-12-20T11:45:28;20.50;;;19.80;;
908;SDS011;441;51.192;6.788;2023-12-20T11:47:56;25.80;;;25.00;;
908;SDS011;441;51.192;6.788;2023-12-20T11:50:23;24.77;;;24.07;;
908;SDS011;441;51.192;6.788;2023-12-20T11:52:51;23.57;;;22.87;;
908;SDS011;441;51.192;6.788;2023-12-20T11:55:19;24.27;;;23.58;;
908;SDS011;441;51.192;6.788;2023-12-20T11:57:47;23.87;;;23.17;;
908;SDS011;441;51.192;6.788;2023-12-20T12:00:14;27.67;;;26.77;;
908;SDS011;441;51.192;6.788;2023-12-20T12:02:42;25.37;;;24.67;;
908;SDS011;441;51.192;6.788;2023-12-20T12:05:09;24.47;;;23.73;;
908;SDS011;441;51.192;6.788;2023-12-20T12:07:36;25.47;;;24.57;;
908;SDS011;441;51.192;6.788;2023-12-20T12:10:03;24.93;;;24.10;;
908;SDS011;441;51.192;6.788;2023-12-20T12:12:31;23.80;;;23.10;;
908;SDS011;441;51.192;6.788;2023-12-20T12:14:59;23.77;;;23.07;;
908;SDS011;441;51.192;6.788;2023-12-20T12:17:28;25.07;;;24.37;;
908;SDS011;441;51.192;6.788;2023-12-20T12:20:01;26.03;;;25.23;;
908;SDS011;441;51.192;6.788;2023-12-20T12:22:30;23.17;;;22.37;;
908;SDS011;441;51.192;6.788;2023-12-20T12:27:23;24.20;;;23.30;;
908;SDS011;441;51.192;6.788;2023-12-20T12:30:01;23.03;;;22.30;;
908;SDS011;441;51.192;6.788;2023-12-20T12:32:29;23.33;;;22.63;;
908;SDS011;441;51.192;6.788;2023-12-20T12:34:57;22.80;;;22.07;;
908;SDS011;441;51.192;6.788;2023-12-20T12:37:24;22.77;;;22.10;;
908;SDS011;441;51.192;6.788;2023-12-20T12:39:53;25.10;;;22.90;;
908;SDS011;441;51.192;6.788;2023-12-20T12:42:20;23.60;;;22.80;;
908;SDS011;441;51.192;6.788;2023-12-20T12:44:50;23.37;;;22.37;;
908;SDS011;441;51.192;6.788;2023-12-20T12:47:19;25.13;;;23.77;;
908;SDS011;441;51.192;6.788;2023-12-20T12:49:46;24.67;;;23.33;;
908;SDS011;441;51.192;6.788;2023-12-20T12:52:13;24.93;;;23.23;;
908;SDS011;441;51.192;6.788;2023-12-20T12:54:39;26.77;;;25.27;;
908;SDS011;441;51.192;6.788;2023-12-20T12:57:07;25.90;;;24.50;;
908;SDS011;441;51.192;6.788;2023-12-20T12:59:34;24.93;;;23.50;;
908;SDS011;441;51.192;6.788;2023-12-20T13:02:01;26.80;;;24.10;;
908;SDS011;441;51.192;6.788;2023-12-20T13:04:30;23.20;;;22.10;;
908;SDS011;441;51.192;6.788;2023-12-20T13:06:57;23.80;;;22.70;;
908;SDS011;441;51.192;6.788;2023-12-20T13:09:24;22.43;;;21.30;;
908;SDS011;441;51.192;6.788;2023-12-20T13:11:50;22.13;;;20.73;;
908;SDS011;441;51.192;6.788;2023-12-20T13:14:17;20.87;;;19.97;;
908;SDS011;441;51.192;6.788;2023-12-20T13:16:44;25.60;;;24.20;;
908;SDS011;441;51.192;6.788;2023-12-20T13:19:11;20.37;;;19.47;;
908;SDS011;441;51.192;6.788;2023-12-20T13:21:39;19.77;;;18.87;;
908;SDS011;441;51.192;6.788;2023-12-20T13:24:06;18.67;;;17.77;;
908;SDS011;441;51.192;6.788;2023-12-20T13:26:33;20.80;;;19.60;;
908;SDS011;441;51.192;6.788;2023-12-20T13:29:01;19.87;;;18.80;;
908;SDS011;441;51.192;6.788;2023-12-20T13:31:28;19.17;;;18.47;;
908;SDS011;441;51.192;6.788;2023-12-20T13:33:55;20.13;;;19.43;;
908;SDS011;441;51.192;6.788;2023-12-20T13:36:22;19.33;;;18.53;;
908;SDS011;441;51.192;6.788;2023-12-20T13:38:50;20.00;;;19.30;;
908;SDS011;441;51.192;6.788;2023-12-20T13:41:18;18.67;;;17.97;;
908;SDS011;441;51.192;6.788;2023-12-20T13:43:45;19.60;;;18.70;;
908;SDS011;441;51.192;6.788;2023-12-20T13:46:12;18.17;;;17.60;;
908;SDS011;441;51.192;6.788;2023-12-20T13:48:39;19.27;;;18.57;;
908;SDS011;441;51.192;6.788;2023-12-20T13:51:06;19.80;;;19.10;;
908;SDS011;441;51.192;6.788;2023-12-20T13:53:33;19.30;;;18.60;;
908;SDS011;441;51.192;6.788;2023-12-20T13:56:01;19.30;;;18.60;;
908;SDS011;441;51.192;6.788;2023-12-20T13:58:29;19.97;;;19.10;;
908;SDS011;441;51.192;6.788;2023-12-20T14:00:55;18.63;;;17.90;;
908;SDS011;441;51.192;6.788;2023-12-20T14:03:23;19.40;;;18.80;;
908;SDS011;441;51.192;6.788;2023-12-20T14:05:50;20.50;;;19.67;;
908;SDS011;441;51.192;6.788;2023-12-20T14:08:17;19.73;;;19.03;;
908;SDS011;441;51.192;6.788;2023-12-20T14:10:43;16.77;;;16.08;;
908;SDS011;441;51.192;6.788;2023-12-20T14:13:12;20.07;;;19.07;;
908;SDS011;441;51.192;6.788;2023-12-20T14:15:39;20.73;;;19.93;;
908;SDS011;441;51.192;6.788;2023-12-20T14:18:06;19.43;;;18.53;;
908;SDS011;441;51.192;6.788;2023-12-20T14:20:34;21.00;;;20.20;;
908;SDS011;441;51.192;6.788;2023-12-20T14:23:01;19.83;;;19.20;;
908;SDS011;441;51.192;6.788;2023-12-20T14:25:28;19.80;;;19.10;;
908;SDS011;441;51.192;6.788;2023-12-20T14:27:56;19.70;;;19.03;;
908;SDS011;441;51.192;6.788;2023-12-20T14:30:24;19.07;;;18.27;;
908;SDS011;441;51.192;6.788;2023-12-20T14:32:51;18.97;;;18.00;;
908;SDS011;441;51.192;6.788;2023-12-20T14:35:18;20.40;;;19.70;;
908;SDS011;441;51.192;6.788;2023-12-20T14:37:45;20.57;;;19.87;;
908;SDS011;441;51.192;6.788;2023-12-20T14:40:12;19.90;;;19.20;;
908;SDS011;441;51.192;6.788;2023-12-20T14:42:41;21.50;;;20.67;;
908;SDS011;441;51.192;6.788;2023-12-20T14:45:08;21.17;;;20.47;;
908;SDS011;441;51.192;6.788;2023-12-20T14:47:37;22.57;;;21.87;;
908;SDS011;441;51.192;6.788;2023-12-20T14:50:04;21.17;;;20.37;;
908;SDS011;441;51.192;6.788;2023-12-20T14:52:32;19.20;;;18.40;;
908;SDS011;441;51.192;6.788;2023-12-20T14:54:59;20.30;;;19.70;;
908;SDS011;441;51.192;6.788;2023-12-20T14:57:27;20.47;;;19.73;;
908;SDS011;441;51.192;6.788;2023-12-20T14:59:55;19.57;;;18.97;;
908;SDS011;441;51.192;6.788;2023-12-20T15:02:22;19.93;;;19.03;;
908;SDS011;441;51.192;6.788;2023-12-20T15:04:50;19.40;;;18.27;;
908;SDS011;441;51.192;6.788;2023-12-20T15:07:17;19.40;;;18.67;;
908;SDS011;441;51.192;6.788;2023-12-20T15:09:45;20.07;;;19.40;;
908;SDS011;441;51.192;6.788;2023-12-20T15:12:12;19.47;;;18.47;;
908;SDS011;441;51.192;6.788;2023-12-20T15:14:39;19.03;;;18.03;;
908;SDS011;441;51.192;6.788;2023-12-20T15:17:06;19.17;;;18.47;;
908;SDS011;441;51.192;6.788;2023-12-20T15:19:34;17.77;;;17.17;;
908;SDS011;441;51.192;6.788;2023-12-20T15:22:02;18.30;;;17.63;;